sensor_id;sensor_type;location;lat;lon;timestamp;pressure;altitude;pressure_sealevel;temperature;humidity
11329;BME280;5719;42.714;23.732;2023-04-08T00:00:45;94479.69;;;6.06;76.92
11329;BME280;5719;42.714;23.732;2023-04-08T00:03:13;94462.41;;;5.94;77.55
11329;BME280;5719;42.714;23.732;2023-04-08T00:05:40;94491.69;;;6.05;77.80
11329;BME280;5719;42.714;23.732;2023-04-08T00:08:07;94483.19;;;6.05;78.29
11329;BME280;5719;42.714;23.732;2023-04-08T00:10:34;94462.03;;;5.84;78.97
11329;BME280;5719;42.714;23.732;2023-04-08T00:13:01;94479.84;;;5.87;79.26
11329;BME280;5719;42.714;23.732;2023-04-08T00:15:27;94478.59;;;5.78;79.74
11329;BME280;5719;42.714;23.732;2023-04-08T00:17:54;94487.97;;;5.62;80.46
11329;BME280;5719;42.714;23.732;2023-04-08T00:20:23;94477.16;;;5.57;80.27
11329;BME280;5719;42.714;23.732;2023-04-08T00:22:50;94467.63;;;5.59;80.63
11329;BME280;5719;42.714;23.732;2023-04-08T00:25:17;94480.88;;;5.67;79.98
11329;BME280;5719;42.714;23.732;2023-04-08T00:27:44;94474.44;;;5.60;79.89
11329;BME280;5719;42.714;23.732;2023-04-08T00:30:11;94481.06;;;5.64;79.98
11329;BME280;5719;42.714;23.732;2023-04-08T00:32:38;94492.22;;;5.63;80.58
11329;BME280;5719;42.714;23.732;2023-04-08T00:35:05;94491.38;;;5.63;80.79
11329;BME280;5719;42.714;23.732;2023-04-08T00:37:33;94490.47;;;5.64;80.77
11329;BME280;5719;42.714;23.732;2023-04-08T00:40:00;94487.81;;;5.65;80.74
11329;BME280;5719;42.714;23.732;2023-04-08T00:42:29;94486.97;;;5.65;80.21
11329;BME280;5719;42.714;23.732;2023-04-08T00:44:56;94490.22;;;5.68;80.32
11329;BME280;5719;42.714;23.732;2023-04-08T00:47:23;94475.25;;;5.61;80.57
11329;BME280;5719;42.714;23.732;2023-04-08T00:49:50;94473.66;;;5.58;80.21
11329;BME280;5719;42.714;23.732;2023-04-08T00:52:17;94482.44;;;5.70;80.41
11329;BME280;5719;42.714;23.732;2023-04-08T00:54:46;94486.75;;;5.69;80.30
11329;BME280;5719;42.714;23.732;2023-04-08T00:57:13;94471.09;;;5.58;80.05
11329;BME280;5719;42.714;23.732;2023-04-08T00:59:40;94488.09;;;5.61;80.45
11329;BME280;5719;42.714;23.732;2023-04-08T01:02:13;94477.41;;;5.53;79.89
11329;BME280;5719;42.714;23.732;2023-04-08T01:04:49;94489.72;;;5.62;79.58
11329;BME280;5719;42.714;23.732;2023-04-08T01:07:21;94485.59;;;5.59;79.49
11329;BME280;5719;42.714;23.732;2023-04-08T01:09:53;94492.69;;;5.54;79.35
11329;BME280;5719;42.714;23.732;2023-04-08T01:12:24;94494.66;;;5.49;79.82
11329;BME280;5719;42.714;23.732;2023-04-08T01:14:58;94493.84;;;5.49;80.10
11329;BME280;5719;42.714;23.732;2023-04-08T01:17:27;94496.56;;;5.46;80.07
11329;BME280;5719;42.714;23.732;2023-04-08T01:19:59;94475.84;;;5.33;80.01
11329;BME280;5719;42.714;23.732;2023-04-08T01:22:33;94500.09;;;5.43;80.05
11329;BME280;5719;42.714;23.732;2023-04-08T01:25:09;94502.66;;;5.43;80.53
11329;BME280;5719;42.714;23.732;2023-04-08T01:27:39;94496.88;;;5.39;80.23
11329;BME280;5719;42.714;23.732;2023-04-08T01:30:08;94500.25;;;5.40;80.87
11329;BME280;5719;42.714;23.732;2023-04-08T01:32:37;94509.63;;;5.41;81.17
11329;BME280;5719;42.714;23.732;2023-04-08T01:35:06;94505.56;;;5.37;81.17
11329;BME280;5719;42.714;23.732;2023-04-08T01:37:33;94493.63;;;5.36;80.99
11329;BME280;5719;42.714;23.732;2023-04-08T01:40:02;94501.41;;;5.34;80.99
11329;BME280;5719;42.714;23.732;2023-04-08T01:42:31;94497.19;;;5.33;80.39
11329;BME280;5719;42.714;23.732;2023-04-08T01:45:02;94506.78;;;5.30;81.24
11329;BME280;5719;42.714;23.732;2023-04-08T01:47:30;94513.72;;;5.28;80.80
11329;BME280;5719;42.714;23.732;2023-04-08T01:49:57;94513.84;;;5.25;80.89
11329;BME280;5719;42.714;23.732;2023-04-08T01:52:25;94513.13;;;5.23;80.82
11329;BME280;5719;42.714;23.732;2023-04-08T01:54:54;94510.56;;;5.23;80.56
11329;BME280;5719;42.714;23.732;2023-04-08T01:57:23;94507.09;;;5.24;81.21
11329;BME280;5719;42.714;23.732;2023-04-08T01:59:55;94515.84;;;5.20;82.00
11329;BME280;5719;42.714;23.732;2023-04-08T02:02:28;94518.97;;;5.25;81.91
11329;BME280;5719;42.714;23.732;2023-04-08T02:04:57;94513.84;;;5.25;81.91
11329;BME280;5719;42.714;23.732;2023-04-08T02:07:24;94521.53;;;5.25;81.94
11329;BME280;5719;42.714;23.732;2023-04-08T02:09:51;94524.03;;;5.26;82.20
11329;BME280;5719;42.714;23.732;2023-04-08T02:12:18;94525.69;;;5.27;82.35
11329;BME280;5719;42.714;23.732;2023-04-08T02:14:45;94535.84;;;5.29;82.82
11329;BME280;5719;42.714;23.732;2023-04-08T02:17:14;94535.78;;;5.30;82.90
11329;BME280;5719;42.714;23.732;2023-04-08T02:19:47;94537.38;;;5.33;82.98
11329;BME280;5719;42.714;23.732;2023-04-08T02:22:24;94534.75;;;5.34;82.69
11329;BME280;5719;42.714;23.732;2023-04-08T02:24:54;94539.03;;;5.34;82.47
11329;BME280;5719;42.714;23.732;2023-04-08T02:27:23;94528.50;;;5.23;81.66
11329;BME280;5719;42.714;23.732;2023-04-08T02:29:52;94535.56;;;5.18;81.47
11329;BME280;5719;42.714;23.732;2023-04-08T02:32:22;94532.28;;;5.16;81.40
11329;BME280;5719;42.714;23.732;2023-04-08T02:34:51;94523.81;;;5.14;81.04
11329;BME280;5719;42.714;23.732;2023-04-08T02:37:19;94534.50;;;5.22;81.54
11329;BME280;5719;42.714;23.732;2023-04-08T02:39:46;94526.66;;;5.25;82.93
11329;BME280;5719;42.714;23.732;2023-04-08T02:42:13;94529.16;;;5.26;83.16
11329;BME280;5719;42.714;23.732;2023-04-08T02:44:40;94482.13;;;4.94;82.39
11329;BME280;5719;42.714;23.732;2023-04-08T02:47:07;94534.34;;;5.25;82.02
11329;BME280;5719;42.714;23.732;2023-04-08T02:49:34;94533.16;;;5.15;82.10
11329;BME280;5719;42.714;23.732;2023-04-08T02:52:02;94539.97;;;4.99;81.80
11329;BME280;5719;42.714;23.732;2023-04-08T02:54:29;94533.72;;;4.87;83.34
11329;BME280;5719;42.714;23.732;2023-04-08T02:56:56;94524.06;;;4.75;84.06
11329;BME280;5719;42.714;23.732;2023-04-08T02:59:23;94531.53;;;4.79;84.82
11329;BME280;5719;42.714;23.732;2023-04-08T03:01:50;94512.00;;;4.60;86.04
11329;BME280;5719;42.714;23.732;2023-04-08T03:04:17;94527.00;;;4.67;86.17
11329;BME280;5719;42.714;23.732;2023-04-08T03:06:44;94524.66;;;4.63;86.66
11329;BME280;5719;42.714;23.732;2023-04-08T03:09:13;94524.88;;;4.58;87.95
11329;BME280;5719;42.714;23.732;2023-04-08T03:11:40;94520.81;;;4.54;87.63
11329;BME280;5719;42.714;23.732;2023-04-08T03:14:06;94532.88;;;4.69;87.49
11329;BME280;5719;42.714;23.732;2023-04-08T03:16:33;94536.28;;;4.70;87.77
11329;BME280;5719;42.714;23.732;2023-04-08T03:19:00;94529.13;;;4.76;87.70
11329;BME280;5719;42.714;23.732;2023-04-08T03:21:27;94534.09;;;4.79;87.22
11329;BME280;5719;42.714;23.732;2023-04-08T03:23:56;94530.16;;;4.72;86.90
11329;BME280;5719;42.714;23.732;2023-04-08T03:26:24;94534.53;;;4.70;87.56
11329;BME280;5719;42.714;23.732;2023-04-08T03:28:51;94534.16;;;4.78;87.28
11329;BME280;5719;42.714;23.732;2023-04-08T03:31:18;94481.13;;;4.45;87.13
11329;BME280;5719;42.714;23.732;2023-04-08T03:33:45;94531.22;;;4.68;87.88
11329;BME280;5719;42.714;23.732;2023-04-08T03:36:12;94532.88;;;4.69;88.98
11329;BME280;5719;42.714;23.732;2023-04-08T03:38:39;94525.03;;;4.72;88.81
11329;BME280;5719;42.714;23.732;2023-04-08T03:41:06;94521.72;;;4.70;87.83
11329;BME280;5719;42.714;23.732;2023-04-08T03:43:34;94528.19;;;4.77;87.14
11329;BME280;5719;42.714;23.732;2023-04-08T03:46:01;94525.41;;;4.48;88.06
11329;BME280;5719;42.714;23.732;2023-04-08T03:48:28;94499.06;;;4.10;88.99
11329;BME280;5719;42.714;23.732;2023-04-08T03:50:55;94502.78;;;4.03;90.88
11329;BME280;5719;42.714;23.732;2023-04-08T03:53:22;94538.28;;;4.27;91.10
11329;BME280;5719;42.714;23.732;2023-04-08T03:55:49;94518.66;;;4.28;90.74
11329;BME280;5719;42.714;23.732;2023-04-08T03:58:16;94537.94;;;4.35;91.39
11329;BME280;5719;42.714;23.732;2023-04-08T04:00:45;94535.91;;;4.41;91.32
11329;BME280;5719;42.714;23.732;2023-04-08T04:03:13;94517.47;;;4.35;90.38
11329;BME280;5719;42.714;23.732;2023-04-08T04:05:42;94536.22;;;4.53;90.35
11329;BME280;5719;42.714;23.732;2023-04-08T04:08:09;94536.66;;;4.62;90.35
11329;BME280;5719;42.714;23.732;2023-04-08T04:10:36;94543.97;;;4.70;89.93
11329;BME280;5719;42.714;23.732;2023-04-08T04:13:03;94518.09;;;4.57;89.56
11329;BME280;5719;42.714;23.732;2023-04-08T04:15:30;94537.38;;;4.64;89.90
11329;BME280;5719;42.714;23.732;2023-04-08T04:18:00;94541.00;;;4.77;89.76
11329;BME280;5719;42.714;23.732;2023-04-08T04:20:26;94523.38;;;4.71;89.44
11329;BME280;5719;42.714;23.732;2023-04-08T04:22:54;94545.75;;;4.85;89.09
11329;BME280;5719;42.714;23.732;2023-04-08T04:25:21;94538.16;;;4.83;89.00
11329;BME280;5719;42.714;23.732;2023-04-08T04:27:49;94548.19;;;4.88;89.00
11329;BME280;5719;42.714;23.732;2023-04-08T04:30:16;94536.28;;;4.87;88.50
11329;BME280;5719;42.714;23.732;2023-04-08T04:32:44;94552.00;;;4.97;88.34
11329;BME280;5719;42.714;23.732;2023-04-08T04:35:12;94552.31;;;4.90;89.05
11329;BME280;5719;42.714;23.732;2023-04-08T04:37:39;94553.44;;;4.85;88.96
11329;BME280;5719;42.714;23.732;2023-04-08T04:40:06;94553.06;;;4.92;88.67
11329;BME280;5719;42.714;23.732;2023-04-08T04:42:34;94489.88;;;4.59;88.66
11329;BME280;5719;42.714;23.732;2023-04-08T04:45:00;94550.81;;;5.04;88.58
11329;BME280;5719;42.714;23.732;2023-04-08T04:47:27;94512.03;;;4.77;88.63
11329;BME280;5719;42.714;23.732;2023-04-08T04:49:57;94555.78;;;5.07;88.50
11329;BME280;5719;42.714;23.732;2023-04-08T04:52:25;94544.09;;;5.01;88.76
11329;BME280;5719;42.714;23.732;2023-04-08T04:54:52;94557.13;;;5.14;89.00
11329;BME280;5719;42.714;23.732;2023-04-08T04:57:19;94556.59;;;5.07;88.77
11329;BME280;5719;42.714;23.732;2023-04-08T04:59:46;94559.25;;;5.06;89.50
11329;BME280;5719;42.714;23.732;2023-04-08T05:02:13;94564.75;;;4.98;90.01
11329;BME280;5719;42.714;23.732;2023-04-08T05:04:39;94567.38;;;4.79;91.16
11329;BME280;5719;42.714;23.732;2023-04-08T05:07:06;94570.25;;;4.90;91.23
11329;BME280;5719;42.714;23.732;2023-04-08T05:09:35;94566.50;;;4.98;91.04
11329;BME280;5719;42.714;23.732;2023-04-08T05:12:02;94567.53;;;4.93;92.02
11329;BME280;5719;42.714;23.732;2023-04-08T05:14:29;94561.44;;;4.96;91.80
11329;BME280;5719;42.714;23.732;2023-04-08T05:16:56;94563.19;;;5.13;91.89
11329;BME280;5719;42.714;23.732;2023-04-08T05:19:23;94570.09;;;5.11;93.10
11329;BME280;5719;42.714;23.732;2023-04-08T05:21:50;94565.59;;;4.99;94.34
11329;BME280;5719;42.714;23.732;2023-04-08T05:24:17;94569.41;;;5.07;94.82
11329;BME280;5719;42.714;23.732;2023-04-08T05:26:45;94570.56;;;5.02;95.82
11329;BME280;5719;42.714;23.732;2023-04-08T05:29:16;94566.78;;;5.09;95.94
11329;BME280;5719;42.714;23.732;2023-04-08T05:31:43;94562.19;;;5.15;97.10
11329;BME280;5719;42.714;23.732;2023-04-08T05:34:10;94565.59;;;5.16;98.81
11329;BME280;5719;42.714;23.732;2023-04-08T05:36:37;94565.75;;;5.13;100.00
11329;BME280;5719;42.714;23.732;2023-04-08T05:39:05;94566.63;;;5.12;100.00
11329;BME280;5719;42.714;23.732;2023-04-08T05:41:32;94564.13;;;5.10;99.71
11329;BME280;5719;42.714;23.732;2023-04-08T05:44:00;94530.47;;;5.01;100.00
11329;BME280;5719;42.714;23.732;2023-04-08T05:46:27;94550.44;;;5.11;100.00
11329;BME280;5719;42.714;23.732;2023-04-08T05:48:54;94538.78;;;5.06;99.65
11329;BME280;5719;42.714;23.732;2023-04-08T05:51:21;94519.53;;;4.97;98.82
11329;BME280;5719;42.714;23.732;2023-04-08T05:53:48;94545.44;;;5.25;99.06
11329;BME280;5719;42.714;23.732;2023-04-08T05:56:15;94545.81;;;5.35;96.11
11329;BME280;5719;42.714;23.732;2023-04-08T05:58:42;94545.94;;;5.49;95.10
11329;BME280;5719;42.714;23.732;2023-04-08T06:01:10;94538.94;;;5.68;95.63
11329;BME280;5719;42.714;23.732;2023-04-08T06:03:37;94504.88;;;5.66;94.79
11329;BME280;5719;42.714;23.732;2023-04-08T06:06:08;94539.19;;;6.12;91.63
11329;BME280;5719;42.714;23.732;2023-04-08T06:08:35;94546.19;;;6.26;89.03
11329;BME280;5719;42.714;23.732;2023-04-08T06:11:02;94543.44;;;6.45;89.58
11329;BME280;5719;42.714;23.732;2023-04-08T06:13:30;94540.81;;;6.60;87.91
11329;BME280;5719;42.714;23.732;2023-04-08T06:15:58;94543.31;;;6.77;88.11
11329;BME280;5719;42.714;23.732;2023-04-08T06:18:28;94540.25;;;7.01;88.31
11329;BME280;5719;42.714;23.732;2023-04-08T06:20:55;94545.56;;;7.27;86.36
11329;BME280;5719;42.714;23.732;2023-04-08T06:23:24;94547.88;;;7.46;84.72
11329;BME280;5719;42.714;23.732;2023-04-08T06:25:52;94538.50;;;7.45;85.24
11329;BME280;5719;42.714;23.732;2023-04-08T06:28:19;94550.66;;;7.71;80.84
11329;BME280;5719;42.714;23.732;2023-04-08T06:30:46;94535.75;;;7.76;78.83
11329;BME280;5719;42.714;23.732;2023-04-08T06:33:14;94548.00;;;8.01;77.37
11329;BME280;5719;42.714;23.732;2023-04-08T06:35:42;94559.81;;;8.18;76.00
11329;BME280;5719;42.714;23.732;2023-04-08T06:38:09;94529.13;;;8.15;75.35
11329;BME280;5719;42.714;23.732;2023-04-08T06:40:37;94526.34;;;8.18;74.12
11329;BME280;5719;42.714;23.732;2023-04-08T06:43:04;94554.13;;;8.41;73.65
11329;BME280;5719;42.714;23.732;2023-04-08T06:45:32;94553.25;;;8.55;74.64
11329;BME280;5719;42.714;23.732;2023-04-08T06:47:59;94555.88;;;8.67;74.68
11329;BME280;5719;42.714;23.732;2023-04-08T06:50:26;94554.06;;;8.82;74.30
11329;BME280;5719;42.714;23.732;2023-04-08T06:52:54;94540.81;;;8.61;73.30
11329;BME280;5719;42.714;23.732;2023-04-08T06:55:21;94555.84;;;8.55;73.21
11329;BME280;5719;42.714;23.732;2023-04-08T06:57:48;94560.16;;;8.54;74.66
11329;BME280;5719;42.714;23.732;2023-04-08T07:00:16;94558.88;;;8.47;75.53
11329;BME280;5719;42.714;23.732;2023-04-08T07:02:43;94555.22;;;8.37;77.07
11329;BME280;5719;42.714;23.732;2023-04-08T07:05:10;94558.00;;;8.06;79.93
11329;BME280;5719;42.714;23.732;2023-04-08T07:07:37;94561.50;;;8.05;80.22
11329;BME280;5719;42.714;23.732;2023-04-08T07:10:06;94564.44;;;7.99;82.55
11329;BME280;5719;42.714;23.732;2023-04-08T07:12:34;94541.84;;;7.75;83.59
11329;BME280;5719;42.714;23.732;2023-04-08T07:15:01;94565.06;;;7.88;83.64
11329;BME280;5719;42.714;23.732;2023-04-08T07:17:29;94574.19;;;7.79;83.71
11329;BME280;5719;42.714;23.732;2023-04-08T07:19:56;94574.66;;;7.72;84.79
11329;BME280;5719;42.714;23.732;2023-04-08T07:22:24;94547.31;;;7.55;85.17
11329;BME280;5719;42.714;23.732;2023-04-08T07:24:51;94579.88;;;7.70;85.93
11329;BME280;5719;42.714;23.732;2023-04-08T07:27:19;94576.06;;;7.48;89.23
11329;BME280;5719;42.714;23.732;2023-04-08T07:29:51;94579.19;;;7.38;91.15
11329;BME280;5719;42.714;23.732;2023-04-08T07:32:18;94569.16;;;7.34;91.92
11329;BME280;5719;42.714;23.732;2023-04-08T07:34:46;94579.09;;;7.54;91.28
11329;BME280;5719;42.714;23.732;2023-04-08T07:37:13;94574.91;;;7.67;89.47
11329;BME280;5719;42.714;23.732;2023-04-08T07:39:40;94568.81;;;7.54;90.12
11329;BME280;5719;42.714;23.732;2023-04-08T07:42:07;94587.97;;;7.64;89.96
11329;BME280;5719;42.714;23.732;2023-04-08T07:44:36;94589.72;;;7.78;90.18
11329;BME280;5719;42.714;23.732;2023-04-08T07:47:04;94593.00;;;7.80;89.48
11329;BME280;5719;42.714;23.732;2023-04-08T07:49:32;94589.72;;;7.78;88.72
11329;BME280;5719;42.714;23.732;2023-04-08T07:51:59;94595.13;;;7.73;88.62
11329;BME280;5719;42.714;23.732;2023-04-08T07:54:26;94598.34;;;7.77;89.78
11329;BME280;5719;42.714;23.732;2023-04-08T07:56:53;94596.03;;;7.72;90.40
11329;BME280;5719;42.714;23.732;2023-04-08T07:59:21;94593.94;;;7.79;90.00
11329;BME280;5719;42.714;23.732;2023-04-08T08:01:49;94597.34;;;7.79;91.26
11329;BME280;5719;42.714;23.732;2023-04-08T08:04:16;94602.66;;;7.90;91.13
11329;BME280;5719;42.714;23.732;2023-04-08T08:06:43;94600.91;;;7.91;90.42
11329;BME280;5719;42.714;23.732;2023-04-08T08:09:10;94597.53;;;7.90;88.44
11329;BME280;5719;42.714;23.732;2023-04-08T08:11:37;94610.69;;;7.86;90.48
11329;BME280;5719;42.714;23.732;2023-04-08T08:14:05;94602.31;;;7.82;91.26
11329;BME280;5719;42.714;23.732;2023-04-08T08:16:32;94603.22;;;7.96;91.89
11329;BME280;5719;42.714;23.732;2023-04-08T08:19:01;94608.19;;;8.27;88.85
11329;BME280;5719;42.714;23.732;2023-04-08T08:21:28;94608.19;;;8.27;87.37
11329;BME280;5719;42.714;23.732;2023-04-08T08:23:56;94610.41;;;8.47;88.84
11329;BME280;5719;42.714;23.732;2023-04-08T08:26:24;94608.28;;;8.54;86.47
11329;BME280;5719;42.714;23.732;2023-04-08T08:28:51;94598.31;;;8.62;84.87
11329;BME280;5719;42.714;23.732;2023-04-08T08:31:18;94604.88;;;8.53;84.16
11329;BME280;5719;42.714;23.732;2023-04-08T08:33:45;94601.56;;;8.51;86.78
11329;BME280;5719;42.714;23.732;2023-04-08T08:36:14;94607.47;;;8.39;85.14
11329;BME280;5719;42.714;23.732;2023-04-08T08:38:40;94609.69;;;8.31;88.25
11329;BME280;5719;42.714;23.732;2023-04-08T08:41:07;94606.34;;;8.57;83.55
11329;BME280;5719;42.714;23.732;2023-04-08T08:43:34;94604.47;;;8.73;83.31
11329;BME280;5719;42.714;23.732;2023-04-08T08:46:02;94606.31;;;8.71;84.00
11329;BME280;5719;42.714;23.732;2023-04-08T08:48:30;94601.41;;;8.81;82.39
11329;BME280;5719;42.714;23.732;2023-04-08T08:50:58;94610.56;;;8.99;81.11
11329;BME280;5719;42.714;23.732;2023-04-08T08:53:29;94618.25;;;9.13;82.32
11329;BME280;5719;42.714;23.732;2023-04-08T08:55:57;94606.31;;;9.25;80.05
11329;BME280;5719;42.714;23.732;2023-04-08T08:58:25;94614.00;;;9.12;80.03
11329;BME280;5719;42.714;23.732;2023-04-08T09:00:53;94618.97;;;8.89;81.83
11329;BME280;5719;42.714;23.732;2023-04-08T09:03:21;94623.81;;;8.93;82.47
11329;BME280;5719;42.714;23.732;2023-04-08T09:05:50;94618.44;;;8.83;83.47
11329;BME280;5719;42.714;23.732;2023-04-08T09:08:25;94598.72;;;8.42;82.73
11329;BME280;5719;42.714;23.732;2023-04-08T09:10:54;94613.72;;;8.63;83.99
11329;BME280;5719;42.714;23.732;2023-04-08T09:13:21;94617.88;;;8.78;82.67
11329;BME280;5719;42.714;23.732;2023-04-08T09:16:03;94618.38;;;8.98;84.24
11329;BME280;5719;42.714;23.732;2023-04-08T09:18:32;94618.72;;;9.32;80.29
11329;BME280;5719;42.714;23.732;2023-04-08T09:20:59;94620.78;;;9.40;79.92
11329;BME280;5719;42.714;23.732;2023-04-08T09:23:45;94612.53;;;9.35;80.23
11329;BME280;5719;42.714;23.732;2023-04-08T09:26:17;94614.34;;;9.72;78.75
11329;BME280;5719;42.714;23.732;2023-04-08T09:28:57;94613.25;;;10.14;74.98
11329;BME280;5719;42.714;23.732;2023-04-08T09:31:26;94621.06;;;10.00;76.00
11329;BME280;5719;42.714;23.732;2023-04-08T09:33:55;94610.00;;;10.11;76.79
11329;BME280;5719;42.714;23.732;2023-04-08T09:36:23;94611.28;;;10.30;74.60
11329;BME280;5719;42.714;23.732;2023-04-08T09:38:51;94571.91;;;10.02;74.24
11329;BME280;5719;42.714;23.732;2023-04-08T09:41:21;94616.31;;;10.07;74.45
11329;BME280;5719;42.714;23.732;2023-04-08T09:43:52;94618.41;;;10.27;73.49
11329;BME280;5719;42.714;23.732;2023-04-08T09:46:25;94617.25;;;10.31;76.49
11329;BME280;5719;42.714;23.732;2023-04-08T09:49:04;94619.09;;;10.91;71.69
11329;BME280;5719;42.714;23.732;2023-04-08T09:51:35;94617.00;;;10.96;69.73
11329;BME280;5719;42.714;23.732;2023-04-08T09:54:12;94618.09;;;11.04;70.77
11329;BME280;5719;42.714;23.732;2023-04-08T09:56:46;94609.00;;;11.81;67.13
11329;BME280;5719;42.714;23.732;2023-04-08T09:59:16;94603.91;;;12.14;64.66
11329;BME280;5719;42.714;23.732;2023-04-08T10:01:51;94599.06;;;12.54;60.20
11329;BME280;5719;42.714;23.732;2023-04-08T10:04:20;94578.56;;;12.62;59.79
11329;BME280;5719;42.714;23.732;2023-04-08T10:06:51;94592.88;;;13.00;58.74
11329;BME280;5719;42.714;23.732;2023-04-08T10:09:20;94593.34;;;13.48;55.92
11329;BME280;5719;42.714;23.732;2023-04-08T10:11:49;94594.09;;;14.01;53.69
11329;BME280;5719;42.714;23.732;2023-04-08T10:14:16;94582.31;;;14.38;55.14
11329;BME280;5719;42.714;23.732;2023-04-08T10:16:43;94586.34;;;15.20;51.50
11329;BME280;5719;42.714;23.732;2023-04-08T10:19:35;94575.38;;;15.17;48.01
11329;BME280;5719;42.714;23.732;2023-04-08T10:22:03;94574.16;;;14.62;48.54
11329;BME280;5719;42.714;23.732;2023-04-08T10:24:30;94569.97;;;14.40;49.75
11329;BME280;5719;42.714;23.732;2023-04-08T10:26:58;94568.66;;;14.46;50.34
11329;BME280;5719;42.714;23.732;2023-04-08T10:29:35;94570.44;;;15.23;48.12
11329;BME280;5719;42.714;23.732;2023-04-08T10:32:02;94571.84;;;15.47;47.47
11329;BME280;5719;42.714;23.732;2023-04-08T10:34:29;94572.78;;;15.17;47.49
11329;BME280;5719;42.714;23.732;2023-04-08T10:36:57;94570.41;;;14.85;45.33
11329;BME280;5719;42.714;23.732;2023-04-08T10:39:29;94540.44;;;15.29;45.88
11329;BME280;5719;42.714;23.732;2023-04-08T10:42:00;94555.16;;;16.15;44.94
11329;BME280;5719;42.714;23.732;2023-04-08T10:44:28;94551.53;;;15.89;43.47
11329;BME280;5719;42.714;23.732;2023-04-08T10:46:55;94552.34;;;15.99;44.40
11329;BME280;5719;42.714;23.732;2023-04-08T10:49:31;94549.91;;;15.11;45.08
11329;BME280;5719;42.714;23.732;2023-04-08T10:51:59;94548.25;;;15.00;46.92
11329;BME280;5719;42.714;23.732;2023-04-08T10:54:26;94546.50;;;15.30;45.89
11329;BME280;5719;42.714;23.732;2023-04-08T10:56:53;94526.03;;;15.63;44.07
11329;BME280;5719;42.714;23.732;2023-04-08T10:59:28;94533.66;;;16.03;43.75
11329;BME280;5719;42.714;23.732;2023-04-08T11:01:56;94536.63;;;16.64;42.57
11329;BME280;5719;42.714;23.732;2023-04-08T11:04:24;94527.59;;;17.39;41.67
11329;BME280;5719;42.714;23.732;2023-04-08T11:06:52;94531.84;;;17.76;39.73
11329;BME280;5719;42.714;23.732;2023-04-08T11:09:19;94523.13;;;17.93;38.13
11329;BME280;5719;42.714;23.732;2023-04-08T11:11:46;94531.56;;;17.61;38.62
11329;BME280;5719;42.714;23.732;2023-04-08T11:14:13;94526.47;;;17.24;39.97
11329;BME280;5719;42.714;23.732;2023-04-08T11:16:43;94517.16;;;16.77;39.41
11329;BME280;5719;42.714;23.732;2023-04-08T11:19:12;94517.88;;;16.69;39.71
11329;BME280;5719;42.714;23.732;2023-04-08T11:21:39;94517.53;;;16.54;39.26
11329;BME280;5719;42.714;23.732;2023-04-08T11:24:09;94517.34;;;16.65;39.95
11329;BME280;5719;42.714;23.732;2023-04-08T11:26:38;94506.13;;;16.55;41.14
11329;BME280;5719;42.714;23.732;2023-04-08T11:29:05;94513.91;;;16.65;41.59
11329;BME280;5719;42.714;23.732;2023-04-08T11:31:34;94520.50;;;15.95;41.66
11329;BME280;5719;42.714;23.732;2023-04-08T11:34:03;94515.63;;;15.44;41.44
11329;BME280;5719;42.714;23.732;2023-04-08T11:36:30;94518.25;;;15.25;42.59
11329;BME280;5719;42.714;23.732;2023-04-08T11:38:59;94489.28;;;15.47;42.63
11329;BME280;5719;42.714;23.732;2023-04-08T11:41:35;94503.72;;;15.23;41.90
11329;BME280;5719;42.714;23.732;2023-04-08T11:44:03;94495.09;;;15.51;42.78
11329;BME280;5719;42.714;23.732;2023-04-08T11:46:31;94490.09;;;15.67;42.31
11329;BME280;5719;42.714;23.732;2023-04-08T11:49:03;94483.97;;;16.05;40.36
11329;BME280;5719;42.714;23.732;2023-04-08T11:51:31;94454.75;;;16.01;41.67
11329;BME280;5719;42.714;23.732;2023-04-08T11:53:59;94474.94;;;16.27;41.63
11329;BME280;5719;42.714;23.732;2023-04-08T11:56:26;94474.69;;;16.47;40.82
11329;BME280;5719;42.714;23.732;2023-04-08T11:58:54;94476.81;;;16.89;41.08
11329;BME280;5719;42.714;23.732;2023-04-08T12:01:22;94469.94;;;17.23;39.67
11329;BME280;5719;42.714;23.732;2023-04-08T12:03:59;94476.31;;;17.03;38.05
11329;BME280;5719;42.714;23.732;2023-04-08T12:06:30;94475.53;;;17.63;38.22
11329;BME280;5719;42.714;23.732;2023-04-08T12:08:57;94474.44;;;17.13;38.21
11329;BME280;5719;42.714;23.732;2023-04-08T12:11:24;94460.47;;;17.57;39.37
11329;BME280;5719;42.714;23.732;2023-04-08T12:13:51;94462.94;;;17.85;38.30
11329;BME280;5719;42.714;23.732;2023-04-08T12:16:18;94472.81;;;18.67;37.70
11329;BME280;5719;42.714;23.732;2023-04-08T12:18:46;94459.06;;;17.97;36.25
11329;BME280;5719;42.714;23.732;2023-04-08T12:21:14;94458.22;;;17.88;36.08
11329;BME280;5719;42.714;23.732;2023-04-08T12:23:42;94454.03;;;17.52;36.45
11329;BME280;5719;42.714;23.732;2023-04-08T12:26:09;94449.50;;;17.80;35.09
11329;BME280;5719;42.714;23.732;2023-04-08T12:28:36;94454.50;;;17.30;35.84
11329;BME280;5719;42.714;23.732;2023-04-08T12:31:04;94460.34;;;17.06;35.26
11329;BME280;5719;42.714;23.732;2023-04-08T12:33:31;94444.81;;;16.87;35.77
11329;BME280;5719;42.714;23.732;2023-04-08T12:35:58;94440.22;;;16.26;38.71
11329;BME280;5719;42.714;23.732;2023-04-08T12:38:25;94436.06;;;16.33;39.33
11329;BME280;5719;42.714;23.732;2023-04-08T12:40:54;94434.91;;;15.81;40.74
11329;BME280;5719;42.714;23.732;2023-04-08T12:43:22;94447.59;;;15.47;39.76
11329;BME280;5719;42.714;23.732;2023-04-08T12:45:49;94437.72;;;15.41;40.71
11329;BME280;5719;42.714;23.732;2023-04-08T12:48:16;94438.81;;;15.48;40.07
11329;BME280;5719;42.714;23.732;2023-04-08T12:50:43;94430.91;;;15.50;40.82
11329;BME280;5719;42.714;23.732;2023-04-08T12:53:10;94427.00;;;16.10;38.93
11329;BME280;5719;42.714;23.732;2023-04-08T12:55:37;94431.16;;;15.66;37.63
11329;BME280;5719;42.714;23.732;2023-04-08T12:58:06;94427.06;;;15.91;38.52
11329;BME280;5719;42.714;23.732;2023-04-08T13:00:33;94428.59;;;16.21;37.17
11329;BME280;5719;42.714;23.732;2023-04-08T13:03:02;94424.13;;;16.03;37.68
11329;BME280;5719;42.714;23.732;2023-04-08T13:05:29;94414.97;;;15.53;39.28
11329;BME280;5719;42.714;23.732;2023-04-08T13:07:56;94418.38;;;15.63;39.52
11329;BME280;5719;42.714;23.732;2023-04-08T13:10:23;94421.31;;;15.41;39.74
11329;BME280;5719;42.714;23.732;2023-04-08T13:12:51;94418.06;;;15.00;40.29